METAR Data
IDs: Format: Raw Decoded Include TAF

Data at: 1119 UTC 23 Jun 2021

KHWD 231054Z 28008KT 10SM OVC023 17/12 A2989 RMK AO2 SLP131 T01670122
No TAF found for KHWD

KBFL 231054Z AUTO 33007KT 10SM CLR 22/07 A2985 RMK AO2 SLP100 T02220072

KBFL 230520Z 2306/2406 33015G22KT P6SM SKC
  FM230800 VRB06KT P6SM SKC
  FM232200 33016G24KT P6SM SKC


KIFP 231115Z AUTO 00000KT 10SM CLR 31/04 A2977 RMK AO2

KIFP 230520Z 2306/2406 17009KT P6SM BKN100 BKN200
  FM231100 17008KT P6SM VCSH BKN100 BKN200
  FM232000 16012G20KT P6SM VCTS SCT080CB BKN100
  PROB30 2320/2324 VRB20G30KT TS
  FM240200 32008KT P6SM SCT100